createdAt,value
2023-08-02T00:01:17.988Z,11.77
2023-08-02T00:04:09.165Z,11.73
2023-08-02T00:06:41.541Z,11.85
2023-08-02T00:09:10.238Z,12.15
2023-08-02T00:11:38.781Z,12.27
2023-08-02T00:14:10.139Z,10.90
2023-08-02T00:16:39.468Z,12.75
2023-08-02T00:19:22.000Z,11.27
2023-08-02T00:21:51.084Z,14.90
2023-08-02T00:24:19.640Z,11.75
2023-08-02T00:26:52.228Z,12.07
2023-08-02T00:29:21.950Z,11.40
2023-08-02T00:31:50.040Z,12.52
2023-08-02T00:34:22.404Z,11.65
2023-08-02T00:36:53.752Z,12.48
2023-08-02T00:39:24.788Z,14.60
2023-08-02T00:41:56.394Z,13.48
2023-08-02T00:44:24.643Z,11.35
2023-08-02T00:46:55.799Z,10.15
2023-08-02T00:49:25.758Z,12.90
2023-08-02T00:51:55.197Z,10.82
2023-08-02T00:54:27.448Z,11.95
2023-08-02T00:56:59.240Z,10.68
2023-08-02T00:59:30.973Z,11.48
2023-08-02T01:02:00.917Z,13.88
2023-08-02T01:04:32.378Z,12.13
2023-08-02T01:07:16.820Z,12.23
2023-08-02T01:09:53.044Z,13.65
2023-08-02T01:12:24.007Z,14.18
2023-08-02T01:15:03.206Z,15.27
2023-08-02T01:17:34.071Z,14.98
2023-08-02T01:20:09.943Z,15.00
2023-08-02T01:22:38.762Z,14.85
2023-08-02T01:25:08.243Z,13.23
2023-08-02T01:27:43.803Z,17.20
2023-08-02T01:30:18.152Z,14.00
2023-08-02T01:32:48.475Z,15.18
2023-08-02T01:35:20.513Z,17.70
2023-08-02T01:37:50.735Z,16.13
2023-08-02T01:40:19.642Z,17.48
2023-08-02T01:42:47.821Z,16.75
2023-08-02T01:45:17.319Z,17.02
2023-08-02T01:47:46.124Z,18.60
2023-08-02T01:50:14.485Z,16.40
2023-08-02T01:52:44.283Z,20.17
2023-08-02T01:55:22.818Z,16.65
2023-08-02T01:57:51.380Z,15.90
2023-08-02T02:00:20.370Z,17.60
2023-08-02T02:02:50.961Z,14.73
2023-08-02T02:05:19.980Z,15.23
2023-08-02T02:07:52.389Z,14.55
2023-08-02T02:10:25.406Z,13.85
2023-08-02T02:12:57.068Z,13.77
2023-08-02T02:15:26.702Z,15.98
2023-08-02T02:17:57.294Z,14.68
2023-08-02T02:20:26.529Z,12.20
2023-08-02T02:22:58.694Z,11.90
2023-08-02T02:25:27.089Z,14.07
2023-08-02T02:27:55.624Z,11.98
2023-08-02T02:30:24.406Z,12.38
2023-08-02T02:32:57.008Z,14.70
2023-08-02T02:35:28.825Z,12.88
2023-08-02T02:37:58.947Z,12.43
2023-08-02T02:40:28.533Z,11.35
2023-08-02T02:42:57.410Z,13.35
2023-08-02T02:45:26.235Z,12.15
2023-08-02T02:47:59.124Z,11.05
2023-08-02T02:50:28.577Z,11.90
2023-08-02T02:52:58.861Z,12.75
2023-08-02T02:55:28.489Z,13.93
2023-08-02T02:58:01.216Z,12.35
2023-08-02T03:00:33.962Z,10.77
2023-08-02T03:03:02.470Z,11.55
2023-08-02T03:05:30.848Z,11.52
2023-08-02T03:08:03.076Z,11.77
2023-08-02T03:10:31.522Z,11.73
2023-08-02T03:12:59.773Z,14.63
2023-08-02T03:15:29.121Z,15.32
2023-08-02T03:17:58.438Z,11.85
2023-08-02T03:20:29.415Z,14.77
2023-08-02T03:22:57.823Z,13.88
2023-08-02T03:25:34.124Z,14.82
2023-08-02T03:28:02.579Z,10.70
2023-08-02T03:30:31.305Z,13.23
2023-08-02T03:33:00.091Z,12.05
2023-08-02T03:35:30.575Z,11.73
2023-08-02T03:38:00.062Z,11.75
2023-08-02T03:40:33.527Z,12.73
2023-08-02T03:43:02.142Z,10.45
2023-08-02T03:45:30.728Z,14.02
2023-08-02T03:48:02.621Z,10.30
2023-08-02T03:50:31.234Z,11.85
2023-08-02T03:53:03.750Z,10.45
2023-08-02T03:55:36.358Z,9.77
2023-08-02T03:58:05.047Z,10.32
2023-08-02T04:00:33.991Z,10.75
2023-08-02T04:03:03.330Z,10.93
2023-08-02T04:05:32.563Z,11.10
2023-08-02T04:08:01.497Z,11.35
2023-08-02T04:10:37.124Z,10.25
2023-08-02T04:13:05.733Z,11.88
2023-08-02T04:15:35.772Z,12.25
2023-08-02T04:18:05.111Z,11.48
2023-08-02T04:20:40.178Z,11.38
2023-08-02T04:23:14.051Z,10.63
2023-08-02T04:25:46.398Z,12.00
2023-08-02T04:28:17.272Z,11.60
2023-08-02T04:30:51.547Z,10.20
2023-08-02T04:33:20.257Z,13.40
2023-08-02T04:35:49.073Z,12.52
2023-08-02T04:38:19.458Z,11.68
2023-08-02T04:40:55.220Z,10.10
2023-08-02T04:43:23.863Z,10.82
2023-08-02T04:45:54.581Z,11.48
2023-08-02T04:48:22.900Z,11.32
2023-08-02T04:50:51.880Z,11.95
2023-08-02T04:53:23.244Z,10.25
2023-08-02T04:55:55.705Z,11.35
2023-08-02T05:00:53.877Z,10.57
2023-08-02T05:03:28.300Z,12.88
2023-08-02T05:06:00.344Z,11.30
2023-08-02T05:08:40.325Z,11.63
2023-08-02T05:11:12.823Z,12.68
2023-08-02T05:13:42.195Z,13.05
2023-08-02T05:16:17.086Z,13.60
2023-08-02T05:18:46.016Z,14.95
2023-08-02T05:21:15.224Z,12.75
2023-08-02T05:23:54.748Z,13.00
2023-08-02T05:26:25.459Z,15.05
2023-08-02T05:29:00.301Z,12.45
2023-08-02T05:31:37.995Z,15.07
2023-08-02T05:34:09.549Z,14.60
2023-08-02T05:36:38.135Z,13.90
2023-08-02T05:39:08.523Z,14.57
2023-08-02T05:41:42.993Z,14.48
2023-08-02T05:46:39.792Z,12.38
2023-08-02T05:49:14.531Z,13.80
2023-08-02T05:51:44.422Z,12.80
2023-08-02T05:54:13.190Z,12.27
2023-08-02T05:56:43.205Z,12.35
2023-08-02T05:59:11.993Z,11.88
2023-08-02T06:01:44.169Z,12.95
2023-08-02T06:04:13.077Z,14.18
2023-08-02T06:06:41.636Z,11.27
2023-08-02T06:09:15.076Z,11.25
2023-08-02T06:11:44.929Z,13.38
2023-08-02T06:14:14.413Z,12.88
2023-08-02T06:16:42.949Z,12.48
2023-08-02T06:19:14.089Z,11.20
2023-08-02T06:21:42.625Z,12.00
2023-08-02T06:24:12.521Z,11.43
2023-08-02T06:26:45.028Z,9.73
2023-08-02T06:29:19.091Z,10.60
2023-08-02T06:31:48.360Z,12.85
2023-08-02T06:34:18.679Z,12.32
2023-08-02T06:36:47.498Z,10.20
2023-08-02T06:39:16.144Z,9.68
2023-08-02T06:41:45.520Z,11.85
2023-08-02T06:44:14.823Z,11.38
2023-08-02T06:46:45.377Z,9.98
2023-08-02T06:49:16.657Z,12.02
2023-08-02T06:51:46.289Z,10.10
2023-08-02T06:54:14.995Z,10.45
2023-08-02T06:56:46.055Z,10.82
2023-08-02T06:59:16.969Z,11.23
2023-08-02T07:01:50.192Z,10.07
2023-08-02T07:04:19.983Z,9.85
2023-08-02T07:06:53.011Z,9.55
2023-08-02T07:09:21.236Z,10.20
2023-08-02T07:11:52.784Z,14.27
2023-08-02T07:14:23.123Z,9.25
2023-08-02T07:16:53.435Z,9.10
2023-08-02T07:19:22.171Z,10.27
2023-08-02T07:21:51.932Z,8.55
2023-08-02T07:24:20.299Z,10.07
2023-08-02T07:26:48.839Z,11.98
2023-08-02T07:29:17.349Z,9.27
2023-08-02T07:31:45.923Z,9.48
2023-08-02T07:34:16.022Z,8.32
2023-08-02T07:36:46.984Z,8.00
2023-08-02T07:39:17.717Z,10.65
2023-08-02T07:41:46.224Z,8.57
2023-08-02T07:44:19.733Z,8.50
2023-08-02T07:46:49.238Z,9.15
2023-08-02T07:49:19.156Z,8.68
2023-08-02T07:51:50.400Z,7.30
2023-08-02T07:54:19.073Z,7.65
2023-08-02T07:56:52.901Z,8.98
2023-08-02T07:59:24.222Z,7.00
2023-08-02T08:01:55.446Z,7.15
2023-08-02T08:04:32.821Z,7.68
2023-08-02T08:07:01.516Z,8.27
2023-08-02T08:09:31.728Z,8.82
2023-08-02T08:12:01.578Z,7.40
2023-08-02T08:14:33.638Z,6.50
2023-08-02T08:17:07.640Z,7.28
2023-08-02T08:19:38.980Z,9.13
2023-08-02T08:22:07.441Z,8.90
2023-08-02T08:24:37.326Z,8.55
2023-08-02T08:27:08.792Z,7.88
2023-08-02T08:29:37.287Z,7.68
2023-08-02T08:32:09.171Z,7.32
2023-08-02T08:34:40.055Z,6.60
2023-08-02T08:37:08.537Z,5.90
2023-08-02T08:39:41.334Z,6.15
2023-08-02T08:42:13.631Z,7.35
2023-08-02T08:44:45.964Z,7.30
2023-08-02T08:47:20.113Z,7.15
2023-08-02T08:49:50.260Z,6.75
2023-08-02T08:52:21.991Z,7.55
2023-08-02T08:54:52.367Z,8.60
2023-08-02T08:57:23.425Z,4.88
2023-08-02T08:59:52.305Z,6.90
2023-08-02T09:02:22.023Z,6.68
2023-08-02T09:04:55.899Z,7.90
2023-08-02T09:07:27.238Z,8.43
2023-08-02T09:09:55.907Z,6.00
2023-08-02T09:12:33.185Z,10.15
2023-08-02T09:15:04.205Z,6.18
2023-08-02T09:17:49.752Z,8.88
2023-08-02T09:20:25.672Z,7.85
2023-08-02T09:22:56.003Z,10.15
2023-08-02T09:25:27.321Z,8.07
2023-08-02T09:27:56.963Z,6.55
2023-08-02T09:30:30.623Z,5.43
2023-08-02T09:33:03.572Z,7.38
2023-08-02T09:35:38.792Z,8.30
2023-08-02T09:38:13.723Z,6.57
2023-08-02T09:41:22.711Z,9.48
2023-08-02T09:43:36.744Z,6.38
2023-08-02T09:46:23.604Z,5.95
2023-08-02T09:48:56.002Z,6.03
2023-08-02T09:51:44.367Z,7.15
2023-08-02T09:54:16.197Z,5.50
2023-08-02T09:59:24.012Z,9.05
2023-08-02T10:01:58.246Z,7.50
2023-08-02T10:04:31.383Z,7.20
2023-08-02T10:07:06.996Z,7.22
2023-08-02T10:09:37.732Z,5.80
2023-08-02T10:12:10.745Z,6.40
2023-08-02T10:14:39.892Z,6.45
2023-08-02T10:17:09.954Z,7.00
2023-08-02T10:19:41.730Z,7.95
2023-08-02T10:22:15.331Z,6.55
2023-08-02T10:24:45.834Z,6.65
2023-08-02T10:27:16.085Z,8.75
2023-08-02T10:29:44.816Z,7.90
2023-08-02T10:32:17.056Z,7.47
2023-08-02T10:34:47.906Z,5.88
2023-08-02T10:37:19.586Z,7.80
2023-08-02T10:39:59.882Z,6.15
2023-08-02T10:42:31.543Z,12.38
2023-08-02T10:45:21.158Z,6.63
2023-08-02T10:47:51.570Z,7.43
2023-08-02T10:50:48.018Z,10.68
2023-08-02T10:53:18.568Z,7.82
2023-08-02T10:56:07.369Z,8.17
2023-08-02T10:58:49.672Z,9.10
2023-08-02T11:01:18.181Z,6.15
2023-08-02T11:03:47.947Z,6.82
2023-08-02T11:06:28.097Z,5.30
2023-08-02T11:08:57.967Z,7.20
2023-08-02T11:11:33.121Z,5.75
2023-08-02T11:14:01.690Z,11.15
2023-08-02T11:19:10.621Z,6.38
2023-08-02T11:21:39.222Z,8.52
2023-08-02T11:24:09.752Z,5.63
2023-08-02T11:29:10.988Z,5.65
2023-08-02T11:31:47.002Z,8.13
2023-08-02T11:34:20.378Z,7.45
2023-08-02T11:36:52.519Z,8.15
2023-08-02T11:39:23.786Z,5.75
2023-08-02T11:42:04.156Z,5.87
2023-08-02T11:44:34.456Z,5.60
2023-08-02T11:47:04.366Z,7.40
2023-08-02T11:49:34.023Z,8.88
2023-08-02T11:52:04.435Z,9.02
2023-08-02T11:54:36.070Z,6.63
2023-08-02T11:57:05.523Z,6.53
2023-08-02T11:59:34.411Z,6.93
2023-08-02T12:02:03.697Z,5.75
2023-08-02T12:04:40.315Z,6.68
2023-08-02T12:07:08.944Z,7.57
2023-08-02T12:09:49.959Z,7.03
2023-08-02T12:12:19.109Z,5.18
2023-08-02T12:14:48.747Z,6.22
2023-08-02T12:17:21.818Z,5.93
2023-08-02T12:19:52.018Z,6.93
2023-08-02T12:22:21.644Z,6.07
2023-08-02T12:27:44.512Z,5.63
2023-08-02T12:30:18.909Z,7.90
2023-08-02T12:32:47.663Z,7.38
2023-08-02T12:35:16.882Z,10.30
2023-08-02T12:37:48.461Z,5.03
2023-08-02T12:40:22.122Z,5.57
2023-08-02T12:43:01.600Z,5.93
2023-08-02T12:45:33.975Z,5.97
2023-08-02T12:48:02.443Z,5.20
2023-08-02T12:50:32.977Z,6.53
2023-08-02T12:53:01.600Z,4.60
2023-08-02T12:55:29.909Z,8.13
2023-08-02T12:58:02.428Z,7.32
2023-08-02T13:00:31.229Z,6.57
2023-08-02T13:02:59.730Z,7.85
2023-08-02T13:05:29.161Z,6.15
2023-08-02T13:07:59.622Z,9.13
2023-08-02T13:10:29.337Z,7.13
2023-08-02T13:13:00.326Z,13.02
2023-08-02T13:15:30.427Z,6.45
2023-08-02T13:18:00.659Z,5.85
2023-08-02T13:20:29.976Z,5.05
2023-08-02T13:22:58.199Z,7.85
2023-08-02T13:28:01.160Z,5.15
2023-08-02T13:30:31.271Z,6.47
2023-08-02T13:33:00.067Z,5.55
2023-08-02T13:35:29.166Z,5.68
2023-08-02T13:38:00.578Z,9.05
2023-08-02T13:40:29.314Z,6.65
2023-08-02T13:42:59.250Z,6.75
2023-08-02T13:45:32.790Z,4.47
2023-08-02T13:48:03.914Z,9.88
2023-08-02T13:50:34.156Z,4.60
2023-08-02T13:53:03.661Z,7.35
2023-08-02T13:55:32.539Z,6.18
2023-08-02T13:58:02.394Z,6.45
2023-08-02T14:00:34.865Z,6.20
2023-08-02T14:03:04.376Z,6.63
2023-08-02T14:05:33.019Z,8.07
2023-08-02T14:08:02.540Z,7.60
2023-08-02T14:10:31.652Z,5.32
2023-08-02T14:13:00.281Z,6.38
2023-08-02T14:15:33.258Z,6.75
2023-08-02T14:18:05.835Z,5.97
2023-08-02T14:20:35.272Z,11.50
2023-08-02T14:23:03.531Z,7.05
2023-08-02T14:25:34.357Z,7.18
2023-08-02T14:28:03.721Z,8.77
2023-08-02T14:30:33.785Z,6.03
2023-08-02T14:33:03.470Z,9.70
2023-08-02T14:35:31.866Z,4.72
2023-08-02T14:38:01.797Z,17.58
2023-08-02T14:40:32.920Z,6.40
2023-08-02T14:43:02.538Z,6.30
2023-08-02T14:45:31.445Z,4.55
2023-08-02T14:48:06.797Z,6.93
2023-08-02T14:50:38.167Z,7.00
2023-08-02T14:55:39.641Z,6.53
2023-08-02T14:58:09.099Z,5.80
2023-08-02T15:00:37.960Z,6.60
2023-08-02T15:03:08.308Z,7.70
2023-08-02T15:05:39.226Z,6.00
2023-08-02T15:08:09.454Z,7.13
2023-08-02T15:10:42.611Z,7.13
2023-08-02T15:13:11.466Z,4.85
2023-08-02T15:15:40.331Z,7.95
2023-08-02T15:18:10.561Z,6.95
2023-08-02T15:20:39.469Z,8.05
2023-08-02T15:23:08.064Z,5.97
2023-08-02T15:25:37.217Z,5.70
2023-08-02T15:28:06.495Z,5.85
2023-08-02T15:30:35.189Z,7.68
2023-08-02T15:33:05.174Z,9.32
2023-08-02T15:35:38.692Z,7.15
2023-08-02T15:38:22.766Z,4.43
2023-08-02T15:41:05.657Z,6.07
2023-08-02T15:43:34.102Z,5.85
2023-08-02T15:46:05.502Z,6.93
2023-08-02T15:51:06.735Z,6.70
2023-08-02T15:53:34.999Z,5.22
2023-08-02T15:56:04.084Z,6.53
2023-08-02T15:58:33.773Z,5.40
2023-08-02T16:01:03.143Z,7.78
2023-08-02T16:03:31.857Z,8.52
2023-08-02T16:06:00.159Z,6.35
2023-08-02T16:08:31.235Z,7.18
2023-08-02T16:11:01.374Z,6.43
2023-08-02T16:13:30.232Z,7.75
2023-08-02T16:15:58.612Z,10.27
2023-08-02T16:18:26.822Z,9.05
2023-08-02T16:20:57.609Z,8.38
2023-08-02T16:23:29.705Z,7.22
2023-08-02T16:26:00.200Z,6.90
2023-08-02T16:28:28.678Z,6.90
2023-08-02T16:30:58.462Z,14.73
2023-08-02T16:33:28.065Z,7.85
2023-08-02T16:36:00.235Z,9.02
2023-08-02T16:38:30.308Z,8.38
2023-08-02T16:41:00.280Z,6.47
2023-08-02T16:43:34.800Z,8.82
2023-08-02T16:48:32.165Z,9.68
2023-08-02T16:51:00.794Z,8.18
2023-08-02T16:53:29.651Z,10.40
2023-08-02T16:55:59.523Z,8.55
2023-08-02T16:58:33.068Z,7.70
2023-08-02T17:01:06.576Z,8.70
2023-08-02T17:03:40.485Z,7.22
2023-08-02T17:06:10.390Z,7.63
2023-08-02T17:08:39.374Z,9.50
2023-08-02T17:11:10.658Z,8.23
2023-08-02T17:13:39.378Z,9.57
2023-08-02T17:16:09.148Z,6.47
2023-08-02T17:18:41.068Z,7.80
2023-08-02T17:21:10.602Z,8.02
2023-08-02T17:23:40.906Z,7.10
2023-08-02T17:26:10.789Z,9.70
2023-08-02T17:28:39.273Z,5.93
2023-08-02T17:31:12.209Z,5.90
2023-08-02T17:33:45.288Z,5.63
2023-08-02T17:38:56.786Z,7.18
2023-08-02T17:46:29.222Z,8.88
2023-08-02T17:49:03.512Z,6.95
2023-08-02T17:51:39.112Z,5.88
2023-08-02T17:54:09.712Z,7.25
2023-08-02T17:56:39.939Z,6.03
2023-08-02T17:59:13.929Z,5.35
2023-08-02T18:01:49.236Z,6.55
2023-08-02T18:04:24.268Z,6.38
2023-08-02T18:06:53.583Z,9.13
2023-08-02T18:09:24.145Z,7.15
2023-08-02T18:11:55.311Z,7.28
2023-08-02T18:14:27.941Z,6.20
2023-08-02T18:16:58.000Z,5.95
2023-08-02T18:19:27.183Z,5.53
2023-08-02T18:21:59.501Z,8.63
2023-08-02T18:24:38.248Z,5.20
2023-08-02T18:27:13.132Z,6.35
2023-08-02T18:29:42.235Z,7.32
2023-08-02T18:32:16.021Z,6.10
2023-08-02T18:34:47.556Z,7.10
2023-08-02T18:37:15.962Z,6.05
2023-08-02T18:39:44.739Z,12.00
2023-08-02T18:42:17.266Z,7.45
2023-08-02T18:44:46.719Z,7.63
2023-08-02T18:47:16.042Z,8.25
2023-08-02T18:49:45.572Z,6.25
2023-08-02T18:52:15.840Z,12.48
2023-08-02T18:54:44.963Z,11.27
2023-08-02T18:57:15.143Z,11.23
2023-08-02T18:59:48.799Z,11.48
2023-08-02T19:02:17.552Z,7.18
2023-08-02T19:04:46.249Z,10.13
2023-08-02T19:07:15.820Z,13.18
2023-08-02T19:09:45.752Z,9.35
2023-08-02T19:12:21.942Z,8.88
2023-08-02T19:14:50.627Z,8.05
2023-08-02T19:17:20.818Z,8.13
2023-08-02T19:19:50.789Z,10.13
2023-08-02T19:22:24.660Z,9.98
2023-08-02T19:24:55.749Z,7.70
2023-08-02T19:27:28.973Z,8.63
2023-08-02T19:30:03.774Z,13.25
2023-08-02T19:32:35.900Z,10.65
2023-08-02T19:35:11.530Z,8.70
2023-08-02T19:37:40.985Z,9.93
2023-08-02T19:40:16.508Z,7.90
2023-08-02T19:42:49.380Z,8.43
2023-08-02T19:45:22.144Z,8.80
2023-08-02T19:47:54.229Z,11.38
2023-08-02T19:50:24.898Z,9.38
2023-08-02T19:52:54.599Z,10.95
2023-08-02T19:55:24.632Z,9.55
2023-08-02T19:57:55.199Z,8.98
2023-08-02T20:00:28.163Z,12.50
2023-08-02T20:02:57.748Z,8.85
2023-08-02T20:05:57.481Z,8.57
2023-08-02T20:08:33.430Z,9.90
2023-08-02T20:11:04.522Z,9.98
2023-08-02T20:13:37.452Z,7.20
2023-08-02T20:16:10.290Z,8.18
2023-08-02T20:18:39.497Z,8.57
2023-08-02T20:21:21.223Z,8.40
2023-08-02T20:23:52.586Z,9.07
2023-08-02T20:26:21.204Z,8.27
2023-08-02T20:28:54.284Z,8.93
2023-08-02T20:31:26.493Z,8.85
2023-08-02T20:34:01.505Z,7.60
2023-08-02T20:36:30.129Z,7.53
2023-08-02T20:38:58.272Z,11.80
2023-08-02T20:41:30.640Z,10.63
2023-08-02T20:44:00.260Z,8.23
2023-08-02T20:46:31.778Z,8.10
2023-08-02T20:49:06.179Z,9.30
2023-08-02T20:51:35.841Z,7.25
2023-08-02T20:54:05.674Z,8.27
2023-08-02T20:56:34.184Z,7.55
2023-08-02T20:59:11.125Z,6.82
2023-08-02T21:01:39.995Z,7.13
2023-08-02T21:04:11.280Z,7.63
2023-08-02T21:06:39.586Z,11.52
2023-08-02T21:09:08.091Z,8.82
2023-08-02T21:11:41.866Z,7.88
2023-08-02T21:14:11.841Z,7.05
2023-08-02T21:16:45.726Z,7.43
2023-08-02T21:19:15.205Z,7.70
2023-08-02T21:21:43.759Z,7.20
2023-08-02T21:24:14.210Z,10.65
2023-08-02T21:26:44.130Z,7.22
2023-08-02T21:29:17.992Z,8.77
2023-08-02T21:31:52.703Z,8.48
2023-08-02T21:34:22.174Z,7.90
2023-08-02T21:36:51.285Z,8.13
2023-08-02T21:39:21.938Z,9.90
2023-08-02T21:41:54.545Z,9.13
2023-08-02T21:44:31.179Z,8.52
2023-08-02T21:47:01.375Z,8.70
2023-08-02T21:49:29.676Z,8.70
2023-08-02T21:52:00.474Z,7.10
2023-08-02T21:54:31.908Z,8.43
2023-08-02T21:57:02.414Z,8.57
2023-08-02T21:59:36.089Z,11.63
2023-08-02T22:02:05.974Z,8.93
2023-08-02T22:04:37.267Z,7.47
2023-08-02T22:07:06.987Z,6.40
2023-08-02T22:09:35.321Z,7.57
2023-08-02T22:12:04.230Z,11.73
2023-08-02T22:14:34.404Z,8.93
2023-08-02T22:17:06.186Z,7.65
2023-08-02T22:22:06.360Z,9.63
2023-08-02T22:24:38.063Z,10.15
2023-08-02T22:27:09.610Z,7.88
2023-08-02T22:29:53.766Z,9.80
2023-08-02T22:32:30.261Z,10.02
2023-08-02T22:34:58.962Z,7.93
2023-08-02T22:37:37.542Z,8.45
2023-08-02T22:40:08.246Z,12.85
2023-08-02T22:42:38.714Z,7.82
2023-08-02T22:45:18.126Z,8.68
2023-08-02T22:47:50.476Z,12.38
2023-08-02T22:52:55.536Z,10.15
2023-08-02T22:55:24.085Z,8.43
2023-08-02T22:57:53.205Z,8.15
2023-08-02T23:00:25.795Z,7.93
2023-08-02T23:05:49.090Z,6.85
2023-08-02T23:08:22.796Z,6.80
2023-08-02T23:10:51.504Z,9.02
2023-08-02T23:13:24.636Z,8.35
2023-08-02T23:15:55.959Z,8.77
2023-08-02T23:18:25.812Z,7.53
2023-08-02T23:21:01.161Z,8.52
2023-08-02T23:23:34.222Z,8.07
2023-08-02T23:26:09.232Z,7.85
2023-08-02T23:28:41.822Z,8.07
2023-08-02T23:31:16.665Z,7.97
2023-08-02T23:33:45.307Z,7.93
2023-08-02T23:36:13.942Z,9.10
2023-08-02T23:38:43.171Z,8.80
2023-08-02T23:41:13.837Z,7.45
2023-08-02T23:43:44.625Z,9.20
2023-08-02T23:46:18.601Z,7.18
2023-08-02T23:48:48.539Z,9.85
2023-08-02T23:51:17.742Z,7.18
2023-08-02T23:53:46.243Z,8.40
2023-08-02T23:56:20.724Z,9.18
